This is the latest recevied weather packets stored in our database for station/object KJ4EWA. If no packets are shown the sender has not sent any weather packets the latest 1 day(s).
| Time | Temp. | Humidity | Pressure | Rain* | Wind** | Luminosity | Snow |
|---|---|---|---|---|---|---|---|
| 1778028212 | 21.67° C | 92% | 1016.9 hPa | 0 mm | - | 0 W/m² | - |
| 1778027604 | 21.67° C | 90% | 1017.1 hPa | 0 mm | - | 0 W/m² | - |
| 1778027300 | 22.22° C | 89% | 1016.9 hPa | 0 mm | - | 0 W/m² | - |
| 1778026997 | 22.22° C | 88% | 1016.8 hPa | 0 mm | - | 0 W/m² | - |
| 1778026693 | 22.78° C | 87% | 1016.9 hPa | 0 mm | - | 1 W/m² | - |
| 1778026087 | 22.78° C | 85% | 1017 hPa | 0 mm | - | 7 W/m² | - |
| 1778025785 | 22.78° C | 84% | 1017 hPa | 0 mm | - | 12 W/m² | - |
| 1778025179 | 23.33° C | 82% | 1016.9 hPa | 0 mm | - | 22 W/m² | - |
| 1778024270 | 23.89° C | 81% | 1016.7 hPa | 0 mm | - | 33 W/m² | - |
| 1778023968 | 23.89° C | 80% | 1016.8 hPa | 0 mm | - | 37 W/m² | - |
| 1778023665 | 23.89° C | 80% | 1016.9 hPa | 0 mm | - | 44 W/m² | - |
| 1778022152 | 25° C | 74% | 1016.7 hPa | 0 mm | - | 125 W/m² | - |
| 1778021546 | 24.44° C | 82% | 1017 hPa | 0 mm | - | 150 W/m² | - |
| 1778020939 | 23.89° C | 83% | 1016.8 hPa | 0 mm | - | 65 W/m² | - |
| 1778019422 | 24.44° C | 82% | 1016.3 hPa | 0 mm | - | 231 W/m² | - |
| 1778019118 | 23.89° C | 83% | 1016.5 hPa | 0 mm | - | 97 W/m² | - |
| 1778017303 | 25° C | 81% | 1016.8 hPa | 0 mm | - | 258 W/m² | - |
| 1778016393 | 25.56° C | 80% | 1016.8 hPa | 0 mm | - | 398 W/m² | - |
| 1778014576 | 24.44° C | 81% | 1017 hPa | 0 mm | - | 110 W/m² | - |
| 1778013668 | 25° C | 80% | 1017.1 hPa | 0 mm | - | 391 W/m² | - |
| 1778011546 | 25° C | 80% | 1017.4 hPa | 0 mm | - | 171 W/m² | - |
| 1778008819 | 25.56° C | 79% | 1017.9 hPa | 0 mm | - | 520 W/m² | - |
* Rain latest hour (hover to see other rain measurements)
** Current wind speed in m/s (hover to see current wind gust speed)